createdAt,value
2018-07-15T00:01:25.136Z,101805.12
2018-07-15T00:03:53.996Z,101798.69
2018-07-15T00:06:22.858Z,101808.33
2018-07-15T00:08:52.136Z,101806.88
2018-07-15T00:11:21.389Z,101805.52
2018-07-15T00:13:50.827Z,101799.94
2018-07-15T00:16:21.083Z,101799.22
2018-07-15T00:18:50.033Z,101795.51
2018-07-15T00:21:19.460Z,101802.63
2018-07-15T00:23:48.367Z,101799.68
2018-07-15T00:26:17.997Z,101800.29
2018-07-15T00:28:47.159Z,101801.80
2018-07-15T00:31:15.974Z,101800.82
2018-07-15T00:33:45.129Z,101797.11
2018-07-15T00:36:14.275Z,101796.38
2018-07-15T00:38:43.265Z,101795.66
2018-07-15T00:41:12.749Z,101791.05
2018-07-15T00:43:41.536Z,101787.02
2018-07-15T00:46:10.492Z,101787.59
2018-07-15T00:48:39.593Z,101783.31
2018-07-15T00:51:08.890Z,101786.69
2018-07-15T00:53:38.126Z,101787.00
2018-07-15T00:56:07.213Z,101790.02
2018-07-15T00:58:36.147Z,101786.18
2018-07-15T01:01:06.355Z,101784.09
2018-07-15T01:03:35.882Z,101787.14
2018-07-15T01:06:05.130Z,101781.73
2018-07-15T01:08:34.166Z,101781.80
2018-07-15T01:11:03.371Z,101782.73
2018-07-15T01:13:32.238Z,101781.20
2018-07-15T01:16:01.955Z,101779.27
2018-07-15T01:18:31.148Z,101777.17
2018-07-15T01:20:59.894Z,101786.48
2018-07-15T01:23:28.851Z,101781.41
2018-07-15T01:25:58.281Z,101776.01
2018-07-15T01:28:27.666Z,101780.17
2018-07-15T01:30:56.610Z,101780.20
2018-07-15T01:33:25.441Z,101779.28
2018-07-15T01:35:54.786Z,101778.67
2018-07-15T01:38:23.757Z,101778.86
2018-07-15T01:40:52.944Z,101778.19
2018-07-15T01:43:21.816Z,101779.10
2018-07-15T01:45:51.344Z,101772.66
2018-07-15T01:48:20.669Z,101771.35
2018-07-15T01:50:50.233Z,101768.14
2018-07-15T01:53:19.136Z,101770.67
2018-07-15T01:55:48.911Z,101771.78
2018-07-15T01:58:18.128Z,101771.84
2018-07-15T02:00:46.938Z,101769.17
2018-07-15T02:03:16.157Z,101768.13
2018-07-15T02:05:45.346Z,101774.16
2018-07-15T02:08:14.357Z,101767.70
2018-07-15T02:10:43.148Z,101767.51
2018-07-15T02:13:12.016Z,101776.06
2018-07-15T02:15:41.189Z,101771.97
2018-07-15T02:18:10.752Z,101774.19
2018-07-15T02:20:39.758Z,101765.84
2018-07-15T02:23:09.145Z,101773.36
2018-07-15T02:25:38.004Z,101771.83
2018-07-15T02:28:06.862Z,101771.63
2018-07-15T02:30:35.950Z,101772.52
2018-07-15T02:33:04.768Z,101774.41
2018-07-15T02:35:33.644Z,101770.38
2018-07-15T02:38:02.783Z,101770.13
2018-07-15T02:40:31.538Z,101771.31
2018-07-15T02:43:04.500Z,101770.86
2018-07-15T02:45:34.044Z,101774.15
2018-07-15T02:48:04.097Z,101768.95
2018-07-15T02:50:33.201Z,101770.54
2018-07-15T02:53:01.954Z,101769.44
2018-07-15T02:55:31.029Z,101767.53
2018-07-15T02:58:00.111Z,101765.40
2018-07-15T03:00:30.006Z,101767.39
2018-07-15T03:02:59.894Z,101766.08
2018-07-15T03:05:28.936Z,101768.06
2018-07-15T03:07:59.101Z,101768.97
2018-07-15T03:10:28.116Z,101758.39
2018-07-15T03:12:57.211Z,101764.16
2018-07-15T03:15:26.272Z,101759.32
2018-07-15T03:17:55.402Z,101758.55
2018-07-15T03:20:24.452Z,101758.59
2018-07-15T03:22:53.488Z,101760.27
2018-07-15T03:25:22.306Z,101759.79
2018-07-15T03:27:51.886Z,101766.39
2018-07-15T03:30:21.328Z,101761.56
2018-07-15T03:32:50.452Z,101760.48
2018-07-15T03:35:19.579Z,101760.20
2018-07-15T03:37:48.404Z,101765.93
2018-07-15T03:40:17.765Z,101758.06
2018-07-15T03:42:46.690Z,101768.16
2018-07-15T03:45:15.796Z,101761.66
2018-07-15T03:47:44.810Z,101759.20
2018-07-15T03:50:15.209Z,101761.35
2018-07-15T03:52:45.012Z,101757.01
2018-07-15T03:55:13.860Z,101757.27
2018-07-15T03:57:43.083Z,101755.11
2018-07-15T04:00:11.842Z,101759.42
2018-07-15T04:02:41.713Z,101752.88
2018-07-15T04:05:11.897Z,101756.34
2018-07-15T04:07:40.688Z,101757.47
2018-07-15T04:10:09.751Z,101754.55
2018-07-15T04:12:39.230Z,101758.38
2018-07-15T04:15:08.049Z,101752.44
2018-07-15T04:17:36.802Z,101746.21
2018-07-15T04:20:06.065Z,101755.44
2018-07-15T04:22:35.645Z,101748.09
2018-07-15T04:25:05.672Z,101748.58
2018-07-15T04:27:34.713Z,101749.66
2018-07-15T04:30:04.041Z,101750.81
2018-07-15T04:32:33.321Z,101756.05
2018-07-15T04:35:02.352Z,101754.12
2018-07-15T04:37:31.545Z,101754.95
2018-07-15T04:40:00.666Z,101755.95
2018-07-15T04:42:29.734Z,101751.77
2018-07-15T04:44:58.841Z,101748.69
2018-07-15T04:47:27.601Z,101758.17
2018-07-15T04:49:57.216Z,101756.44
2018-07-15T04:52:25.968Z,101755.28
2018-07-15T04:54:55.013Z,101757.39
2018-07-15T04:57:23.770Z,101751.63
2018-07-15T04:59:52.913Z,101753.20
2018-07-15T05:02:22.116Z,101754.48
2018-07-15T05:04:50.971Z,101753.61
2018-07-15T05:07:19.818Z,101757.59
2018-07-15T05:09:48.666Z,101763.67
2018-07-15T05:12:17.720Z,101755.58
2018-07-15T05:14:46.983Z,101751.32
2018-07-15T05:17:15.804Z,101750.89
2018-07-15T05:19:44.616Z,101756.91
2018-07-15T05:22:13.498Z,101754.55
2018-07-15T05:24:42.559Z,101761.38
2018-07-15T05:27:11.780Z,101762.73
2018-07-15T05:29:40.883Z,101763.05
2018-07-15T05:32:10.432Z,101765.02
2018-07-15T05:34:40.506Z,101757.94
2018-07-15T05:37:09.358Z,101760.92
2018-07-15T05:39:38.246Z,101768.02
2018-07-15T05:42:08.054Z,101762.69
2018-07-15T05:44:37.154Z,101764.83
2018-07-15T05:47:05.932Z,101761.17
2018-07-15T05:49:35.119Z,101762.80
2018-07-15T05:52:04.002Z,101765.50
2018-07-15T05:54:33.633Z,101770.44
2018-07-15T05:57:02.910Z,101769.50
2018-07-15T05:59:31.888Z,101779.23
2018-07-15T06:02:01.093Z,101781.46
2018-07-15T06:04:30.836Z,101782.43
2018-07-15T06:06:59.818Z,101782.20
2018-07-15T06:09:29.251Z,101790.64
2018-07-15T06:11:58.615Z,101786.08
2018-07-15T06:14:28.502Z,101782.91
2018-07-15T06:16:59.021Z,101783.46
2018-07-15T06:19:28.146Z,101778.85
2018-07-15T06:21:57.330Z,101782.30
2018-07-15T06:24:26.534Z,101778.52
2018-07-15T06:26:55.598Z,101784.52
2018-07-15T06:29:24.533Z,101776.20
2018-07-15T06:31:53.647Z,101779.38
2018-07-15T06:34:23.364Z,101775.55
2018-07-15T06:36:52.723Z,101779.80
2018-07-15T06:39:21.789Z,101778.42
2018-07-15T06:41:50.901Z,101777.47
2018-07-15T06:44:20.113Z,101779.26
2018-07-15T06:46:49.153Z,101774.12
2018-07-15T06:49:18.312Z,101770.65
2018-07-15T06:51:47.453Z,101777.17
2018-07-15T06:54:16.328Z,101772.36
2018-07-15T06:56:45.303Z,101773.67
2018-07-15T06:59:15.001Z,101769.30
2018-07-15T07:01:44.265Z,101768.66
2018-07-15T07:04:13.440Z,101767.77
2018-07-15T07:06:42.548Z,101766.97
2018-07-15T07:09:11.672Z,101764.92
2018-07-15T07:11:40.569Z,101766.53
2018-07-15T07:14:09.437Z,101771.83
2018-07-15T07:16:39.058Z,101764.02
2018-07-15T07:19:09.165Z,101763.28
2018-07-15T07:21:37.937Z,101762.67
2018-07-15T07:24:07.032Z,101766.08
2018-07-15T07:26:35.917Z,101765.11
2018-07-15T07:29:05.093Z,101766.41
2018-07-15T07:31:34.648Z,101763.41
2018-07-15T07:34:03.947Z,101753.25
2018-07-15T07:36:33.151Z,101757.26
2018-07-15T07:39:02.253Z,101761.31
2018-07-15T07:41:31.379Z,101764.19
2018-07-15T07:44:00.252Z,101756.70
2018-07-15T07:46:29.798Z,101756.33
2018-07-15T07:49:10.805Z,101754.98
2018-07-15T07:51:41.870Z,101757.30
2018-07-15T07:54:10.658Z,101753.03
2018-07-15T07:56:40.029Z,101749.86
2018-07-15T07:59:09.120Z,101755.39
2018-07-15T08:01:38.195Z,101746.58
2018-07-15T08:04:07.410Z,101752.78
2018-07-15T08:06:36.461Z,101754.24
2018-07-15T08:09:06.836Z,101748.34
2018-07-15T08:11:35.907Z,101750.29
2018-07-15T08:14:04.639Z,101754.01
2018-07-15T08:16:33.741Z,101752.98
2018-07-15T08:19:02.585Z,101749.65
2018-07-15T08:21:31.736Z,101747.23
2018-07-15T08:24:00.515Z,101750.76
2018-07-15T08:26:29.625Z,101750.11
2018-07-15T08:28:58.457Z,101751.72
2018-07-15T08:31:27.588Z,101751.26
2018-07-15T08:33:57.403Z,101749.45
2018-07-15T08:36:26.365Z,101746.73
2018-07-15T08:38:55.585Z,101744.64
2018-07-15T08:41:24.705Z,101741.78
2018-07-15T08:43:54.089Z,101741.53
2018-07-15T08:46:24.982Z,101742.92
2018-07-15T08:48:53.999Z,101732.73
2018-07-15T08:51:24.050Z,101742.16
2018-07-15T08:53:53.559Z,101742.88
2018-07-15T08:56:23.670Z,101746.95
2018-07-15T08:58:53.340Z,101751.83
2018-07-15T09:01:23.256Z,101742.08
2018-07-15T09:03:52.311Z,101743.75
2018-07-15T09:06:21.754Z,101745.75
2018-07-15T09:08:51.543Z,101742.14
2018-07-15T09:11:22.137Z,101746.52
2018-07-15T09:13:51.538Z,101742.19
2018-07-15T09:16:21.587Z,101734.89
2018-07-15T09:18:52.792Z,101734.47
2018-07-15T09:21:23.944Z,101730.53
2018-07-15T09:23:54.575Z,101727.27
2018-07-15T09:26:23.587Z,101725.80
2018-07-15T09:28:54.349Z,101735.03
2018-07-15T09:31:24.251Z,101727.66
2018-07-15T09:33:53.893Z,101732.70
2018-07-15T09:36:23.508Z,101727.84
2018-07-15T09:38:53.305Z,101729.34
2018-07-15T09:41:23.189Z,101726.23
2018-07-15T09:43:53.364Z,101726.68
2018-07-15T09:46:24.033Z,101727.10
2018-07-15T09:48:55.719Z,101721.23
2018-07-15T09:51:25.680Z,101720.06
2018-07-15T09:53:55.547Z,101717.89
2018-07-15T09:56:25.368Z,101707.77
2018-07-15T09:58:54.894Z,101713.73
2018-07-15T10:01:24.439Z,101707.17
2018-07-15T10:03:54.452Z,101711.36
2018-07-15T10:06:23.507Z,101702.42
2018-07-15T10:08:54.914Z,101706.82
2018-07-15T10:11:24.363Z,101696.46
2018-07-15T10:13:54.333Z,101702.97
2018-07-15T10:16:23.885Z,101700.77
2018-07-15T10:18:52.983Z,101698.05
2018-07-15T10:21:23.128Z,101703.22
2018-07-15T10:23:52.894Z,101695.22
2018-07-15T10:26:21.981Z,101696.78
2018-07-15T10:28:51.318Z,101692.84
2018-07-15T10:31:21.123Z,101693.20
2018-07-15T10:33:50.930Z,101685.89
2018-07-15T10:36:20.094Z,101684.95
2018-07-15T10:38:49.292Z,101694.03
2018-07-15T10:41:19.380Z,101685.52
2018-07-15T10:43:50.570Z,101689.06
2018-07-15T10:46:19.928Z,101678.88
2018-07-15T10:48:50.730Z,101673.20
2018-07-15T10:51:20.737Z,101673.59
2018-07-15T10:53:51.747Z,101664.51
2018-07-15T10:56:21.442Z,101665.95
2018-07-15T10:58:51.494Z,101666.45
2018-07-15T11:01:22.244Z,101670.77
2018-07-15T11:03:52.940Z,101669.02
2018-07-15T11:06:22.988Z,101671.61
2018-07-15T11:08:53.137Z,101671.72
2018-07-15T11:11:23.122Z,101665.00
2018-07-15T11:16:56.737Z,101658.27
2018-07-15T11:19:28.400Z,101649.64
2018-07-15T11:22:03.448Z,101649.30
2018-07-15T11:24:39.337Z,101646.66
2018-07-15T11:27:10.411Z,101645.17
2018-07-15T11:29:40.604Z,101634.86
2018-07-15T11:32:09.546Z,101640.47
2018-07-15T11:34:41.437Z,101635.23
2018-07-15T11:37:11.215Z,101639.55
2018-07-15T11:39:47.807Z,101632.63
2018-07-15T11:42:18.867Z,101629.53
2018-07-15T11:44:50.563Z,101630.37
2018-07-15T11:47:22.481Z,101627.74
2018-07-15T11:49:54.278Z,101627.56
2018-07-15T11:52:24.543Z,101629.64
2018-07-15T11:54:54.403Z,101616.41
2018-07-15T11:57:23.592Z,101612.83
2018-07-15T11:59:53.621Z,101609.28
2018-07-15T12:02:23.404Z,101610.52
2018-07-15T12:04:53.290Z,101608.49
2018-07-15T12:07:22.242Z,101610.23
2018-07-15T12:09:51.436Z,101610.70
2018-07-15T12:12:20.421Z,101603.71
2018-07-15T12:14:49.287Z,101601.91
2018-07-15T12:17:19.224Z,101592.47
2018-07-15T12:19:49.207Z,101593.17
2018-07-15T12:22:18.089Z,101598.53
2018-07-15T12:24:47.581Z,101593.84
2018-07-15T12:27:17.729Z,101587.28
2018-07-15T12:29:46.983Z,101588.57
2018-07-15T12:32:17.352Z,101573.52
2018-07-15T12:34:47.542Z,101578.15
2018-07-15T12:37:18.251Z,101590.91
2018-07-15T12:39:47.571Z,101582.68
2018-07-15T12:42:16.764Z,101574.78
2018-07-15T12:44:45.628Z,101574.45
2018-07-15T12:47:16.268Z,101574.81
2018-07-15T12:49:45.467Z,101570.70
2018-07-15T12:52:15.056Z,101573.92
2018-07-15T12:54:52.467Z,101577.23
2018-07-15T12:57:21.360Z,101566.48
2018-07-15T12:59:51.480Z,101560.27
2018-07-15T13:02:20.939Z,101560.53
2018-07-15T13:04:49.760Z,101557.66
2018-07-15T13:07:19.123Z,101553.95
2018-07-15T13:09:48.155Z,101544.99
2018-07-15T13:12:17.331Z,101541.14
2018-07-15T13:14:46.131Z,101535.45
2018-07-15T13:17:15.578Z,101535.27
2018-07-15T13:19:46.376Z,101537.56
2018-07-15T13:22:16.489Z,101532.53
2018-07-15T13:24:46.002Z,101529.39
2018-07-15T13:27:15.180Z,101523.70
2018-07-15T13:29:44.232Z,101520.42
2018-07-15T13:32:13.384Z,101524.90
2018-07-15T13:34:42.813Z,101518.73
2018-07-15T13:37:12.549Z,101513.42
2018-07-15T13:39:42.176Z,101511.23
2018-07-15T13:42:11.547Z,101511.77
2018-07-15T13:44:40.365Z,101510.34
2018-07-15T13:47:09.275Z,101513.78
2018-07-15T13:49:38.627Z,101501.59
2018-07-15T13:52:07.826Z,101505.41
2018-07-15T13:54:36.946Z,101493.59
2018-07-15T13:57:05.773Z,101500.05
2018-07-15T13:59:34.845Z,101500.69
2018-07-15T14:02:03.744Z,101496.46
2018-07-15T14:04:32.901Z,101494.56
2018-07-15T14:07:02.133Z,101480.71
2018-07-15T14:09:31.027Z,101484.00
2018-07-15T14:12:00.392Z,101478.38
2018-07-15T14:14:29.688Z,101476.98
2018-07-15T14:16:58.555Z,101470.05
2018-07-15T14:19:27.728Z,101472.47
2018-07-15T14:21:56.748Z,101470.17
2018-07-15T14:24:25.937Z,101469.45
2018-07-15T14:26:55.170Z,101470.45
2018-07-15T14:29:24.467Z,101466.75
2018-07-15T14:31:54.363Z,101458.02
2018-07-15T14:34:23.214Z,101459.23
2018-07-15T14:36:53.256Z,101457.19
2018-07-15T14:39:23.043Z,101458.72
2018-07-15T14:41:53.180Z,101459.67
2018-07-15T14:44:22.144Z,101461.69
2018-07-15T14:46:55.385Z,101464.22
2018-07-15T14:49:24.286Z,101463.20
2018-07-15T14:51:53.423Z,101456.14
2018-07-15T14:54:23.488Z,101452.12
2018-07-15T14:56:52.361Z,101447.75
2018-07-15T14:59:21.823Z,101447.56
2018-07-15T15:01:51.223Z,101450.02
2018-07-15T15:04:20.511Z,101447.39
2018-07-15T15:06:50.859Z,101453.36
2018-07-15T15:09:19.974Z,101445.42
2018-07-15T15:11:50.357Z,101445.92
2018-07-15T15:14:20.359Z,101443.85
2018-07-15T15:16:49.241Z,101439.38
2018-07-15T15:19:18.464Z,101446.55
2018-07-15T15:21:48.440Z,101438.62
2018-07-15T15:24:17.411Z,101439.91
2018-07-15T15:26:46.613Z,101440.30
2018-07-15T15:29:15.628Z,101441.59
2018-07-15T15:31:45.230Z,101436.10
2018-07-15T15:34:14.163Z,101442.96
2018-07-15T15:36:43.196Z,101437.52
2018-07-15T15:39:12.293Z,101437.50
2018-07-15T15:41:41.426Z,101443.19
2018-07-15T15:44:10.718Z,101438.89
2018-07-15T15:46:40.174Z,101432.67
2018-07-15T15:49:10.703Z,101430.83
2018-07-15T15:51:39.869Z,101434.94
2018-07-15T15:54:09.642Z,101427.21
2018-07-15T15:56:38.777Z,101428.45
2018-07-15T15:59:07.922Z,101429.34
2018-07-15T16:01:37.067Z,101424.88
2018-07-15T16:04:06.169Z,101418.27
2018-07-15T16:06:35.405Z,101411.70
2018-07-15T16:09:04.908Z,101418.72
2018-07-15T16:11:34.158Z,101418.42
2018-07-15T16:14:04.188Z,101410.03
2018-07-15T16:16:33.760Z,101417.53
2018-07-15T16:19:02.910Z,101413.91
2018-07-15T16:21:32.554Z,101415.10
2018-07-15T16:24:02.151Z,101420.49
2018-07-15T16:26:31.594Z,101414.94
2018-07-15T16:29:00.891Z,101413.20
2018-07-15T16:31:30.558Z,101408.71
2018-07-15T16:34:00.597Z,101410.30
2018-07-15T16:36:29.588Z,101409.45
2018-07-15T16:38:58.630Z,101412.56
2018-07-15T16:41:28.981Z,101406.44
2018-07-15T16:43:58.275Z,101407.85
2018-07-15T16:46:27.444Z,101407.06
2018-07-15T16:48:56.252Z,101403.41
2018-07-15T16:51:25.452Z,101402.97
2018-07-15T16:53:54.712Z,101403.16
2018-07-15T16:56:23.574Z,101402.38
2018-07-15T16:58:52.486Z,101400.85
2018-07-15T17:01:21.513Z,101397.77
2018-07-15T17:03:50.552Z,101399.16
2018-07-15T17:06:20.145Z,101394.09
2018-07-15T17:08:49.731Z,101395.87
2018-07-15T17:11:18.663Z,101392.36
2018-07-15T17:13:47.815Z,101390.59
2018-07-15T17:16:17.235Z,101386.47
2018-07-15T17:18:46.267Z,101386.91
2018-07-15T17:21:15.309Z,101386.91
2018-07-15T17:23:44.211Z,101382.77
2018-07-15T17:26:13.721Z,101381.75
2018-07-15T17:28:43.203Z,101376.65
2018-07-15T17:31:13.150Z,101372.41
2018-07-15T17:33:42.269Z,101375.80
2018-07-15T17:36:11.502Z,101375.01
2018-07-15T17:38:40.349Z,101375.22
2018-07-15T17:41:09.721Z,101376.31
2018-07-15T17:43:38.552Z,101377.36
2018-07-15T17:46:08.249Z,101377.30
2018-07-15T17:48:37.790Z,101376.06
2018-07-15T17:51:07.176Z,101364.61
2018-07-15T17:53:36.767Z,101373.34
2018-07-15T17:56:06.405Z,101381.34
2018-07-15T17:58:35.470Z,101382.34
2018-07-15T18:01:04.289Z,101380.89
2018-07-15T18:03:33.115Z,101377.28
2018-07-15T18:06:02.367Z,101377.64
2018-07-15T18:08:31.513Z,101376.11
2018-07-15T18:11:00.722Z,101377.34
2018-07-15T18:13:29.604Z,101373.80
2018-07-15T18:15:59.990Z,101377.45
2018-07-15T18:18:28.885Z,101378.42
2018-07-15T18:20:57.665Z,101381.85
2018-07-15T18:23:27.027Z,101383.07
2018-07-15T18:25:56.017Z,101387.25
2018-07-15T18:28:24.755Z,101386.52
2018-07-15T18:30:54.118Z,101386.20
2018-07-15T18:33:22.992Z,101387.86
2018-07-15T18:35:51.795Z,101388.16
2018-07-15T18:38:20.838Z,101392.57
2018-07-15T18:40:49.588Z,101391.05
2018-07-15T18:43:19.537Z,101394.17
2018-07-15T18:45:48.561Z,101398.14
2018-07-15T18:48:17.358Z,101395.77
2018-07-15T18:50:47.409Z,101389.22
2018-07-15T18:53:16.689Z,101396.63
2018-07-15T18:55:45.506Z,101394.66
2018-07-15T18:58:15.929Z,101392.45
2018-07-15T19:00:44.966Z,101392.06
2018-07-15T19:03:13.741Z,101398.25
2018-07-15T19:05:42.735Z,101398.92
2018-07-15T19:08:11.916Z,101394.80
2018-07-15T19:10:41.139Z,101395.61
2018-07-15T19:13:10.065Z,101400.00
2018-07-15T19:15:39.762Z,101397.20
2018-07-15T19:18:08.593Z,101400.98
2018-07-15T19:20:37.413Z,101399.83
2018-07-15T19:23:06.229Z,101404.20
2018-07-15T19:25:35.651Z,101405.39
2018-07-15T19:28:04.822Z,101406.37
2018-07-15T19:30:33.821Z,101406.98
2018-07-15T19:33:02.712Z,101411.76
2018-07-15T19:35:31.550Z,101416.97
2018-07-15T19:38:00.819Z,101421.15
2018-07-15T19:40:29.882Z,101425.91
2018-07-15T19:42:59.018Z,101416.56
2018-07-15T19:45:28.153Z,101422.51
2018-07-15T19:47:58.455Z,101420.71
2018-07-15T19:50:28.525Z,101430.63
2018-07-15T19:52:57.943Z,101435.38
2018-07-15T19:55:27.137Z,101438.34
2018-07-15T19:57:55.982Z,101431.38
2018-07-15T20:00:25.090Z,101444.42
2018-07-15T20:02:54.167Z,101450.87
2018-07-15T20:05:23.020Z,101446.09
2018-07-15T20:07:52.086Z,101447.80
2018-07-15T20:10:20.937Z,101444.38
2018-07-15T20:12:50.135Z,101446.47
2018-07-15T20:15:19.153Z,101445.80
2018-07-15T20:17:49.052Z,101450.72
2018-07-15T20:20:17.863Z,101449.09
2018-07-15T20:22:46.625Z,101460.70
2018-07-15T20:25:15.431Z,101456.83
2018-07-15T20:27:44.484Z,101453.93
2018-07-15T20:30:13.735Z,101463.38
2018-07-15T20:32:42.768Z,101461.31
2018-07-15T20:35:12.086Z,101467.02
2018-07-15T20:37:43.057Z,101471.30
2018-07-15T20:40:12.556Z,101465.48
2018-07-15T20:42:41.913Z,101458.08
2018-07-15T20:45:11.015Z,101456.64
2018-07-15T20:47:39.835Z,101470.77
2018-07-15T20:50:08.825Z,101458.53
2018-07-15T20:52:38.623Z,101468.95
2018-07-15T20:55:07.790Z,101473.34
2018-07-15T20:57:36.898Z,101470.30
2018-07-15T21:00:06.023Z,101473.02
2018-07-15T21:02:35.320Z,101474.37
2018-07-15T21:05:04.349Z,101473.86
2018-07-15T21:07:33.304Z,101473.90
2018-07-15T21:10:02.323Z,101474.81
2018-07-15T21:12:31.382Z,101475.89
2018-07-15T21:15:00.534Z,101475.05
2018-07-15T21:17:29.706Z,101480.63
2018-07-15T21:19:58.528Z,101472.02
2018-07-15T21:22:27.392Z,101473.61
2018-07-15T21:24:56.817Z,101473.41
2018-07-15T21:27:25.579Z,101464.16
2018-07-15T21:29:54.311Z,101475.73
2018-07-15T21:32:23.407Z,101475.28
2018-07-15T21:34:52.298Z,101477.27
2018-07-15T21:37:21.204Z,101475.17
2018-07-15T21:39:50.517Z,101473.75
2018-07-15T21:42:19.497Z,101472.16
2018-07-15T21:44:48.759Z,101465.84
2018-07-15T21:47:17.986Z,101474.08
2018-07-15T21:49:46.966Z,101472.33
2018-07-15T21:52:16.265Z,101473.70
2018-07-15T21:54:45.908Z,101476.39
2018-07-15T21:57:16.021Z,101474.92
2018-07-15T21:59:45.469Z,101472.67
2018-07-15T22:02:15.133Z,101480.94
2018-07-15T22:04:44.210Z,101471.34
2018-07-15T22:07:24.202Z,101478.59
2018-07-15T22:10:08.787Z,101484.54
2018-07-15T22:12:38.953Z,101481.27
2018-07-15T22:15:07.835Z,101482.94
2018-07-15T22:17:36.700Z,101485.05
2018-07-15T22:20:05.724Z,101484.53
2018-07-15T22:22:34.572Z,101478.84
2018-07-15T22:25:03.611Z,101481.88
2018-07-15T22:27:33.071Z,101482.59
2018-07-15T22:30:01.816Z,101483.19
2018-07-15T22:32:30.594Z,101488.61
2018-07-15T22:34:59.946Z,101489.67
2018-07-15T22:37:28.734Z,101487.22
2018-07-15T22:39:57.792Z,101488.05
2018-07-15T22:42:26.847Z,101481.79
2018-07-15T22:44:55.764Z,101484.78
2018-07-15T22:47:25.467Z,101478.84
2018-07-15T22:49:54.857Z,101475.20
2018-07-15T22:52:24.840Z,101474.50
2018-07-15T22:54:54.342Z,101481.64
2018-07-15T22:57:23.119Z,101468.86
2018-07-15T22:59:52.001Z,101476.81
2018-07-15T23:02:21.820Z,101479.60
2018-07-15T23:06:01.608Z,101471.47
2018-07-15T23:08:31.561Z,101471.96
2018-07-15T23:11:00.762Z,101475.62
2018-07-15T23:13:29.930Z,101479.09
2018-07-15T23:15:58.873Z,101478.46
2018-07-15T23:18:27.967Z,101480.81
2018-07-15T23:20:56.835Z,101481.65
2018-07-15T23:23:25.665Z,101478.00
2018-07-15T23:25:55.627Z,101479.14
2018-07-15T23:28:25.018Z,101483.75
2018-07-15T23:30:54.055Z,101480.03
2018-07-15T23:33:23.522Z,101471.69
2018-07-15T23:35:52.943Z,101471.80
2018-07-15T23:38:22.144Z,101463.96
2018-07-15T23:40:51.348Z,101478.61
2018-07-15T23:43:20.547Z,101468.09
2018-07-15T23:45:49.851Z,101472.13
2018-07-15T23:48:18.737Z,101470.64
2018-07-15T23:50:47.969Z,101472.73
2018-07-15T23:53:16.711Z,101467.34
2018-07-15T23:55:45.510Z,101465.73
2018-07-15T23:58:15.408Z,101470.69
